createdAt,value
2023-05-04T00:00:43.190Z,13.30
2023-05-04T00:01:44.708Z,13.24
2023-05-04T00:02:46.314Z,13.26
2023-05-04T00:03:48.644Z,13.31
2023-05-04T00:04:54.206Z,13.36
2023-05-04T00:05:56.194Z,13.35
2023-05-04T00:06:57.703Z,13.22
2023-05-04T00:07:59.292Z,13.13
2023-05-04T00:09:00.897Z,13.16
2023-05-04T00:10:02.776Z,13.27
2023-05-04T00:11:05.200Z,13.37
2023-05-04T00:12:08.232Z,13.45
2023-05-04T00:13:10.019Z,13.50
2023-05-04T00:14:11.738Z,13.59
2023-05-04T00:15:13.295Z,13.64
2023-05-04T00:16:14.940Z,13.65
2023-05-04T00:17:16.980Z,13.65
2023-05-04T00:18:18.505Z,13.67
2023-05-04T00:19:20.061Z,13.69
2023-05-04T00:20:21.719Z,13.70
2023-05-04T00:21:23.269Z,13.73
2023-05-04T00:22:24.871Z,13.75
2023-05-04T00:23:26.421Z,13.79
2023-05-04T00:24:28.739Z,13.82
2023-05-04T00:25:30.700Z,13.84
2023-05-04T00:26:32.333Z,13.80
2023-05-04T00:27:35.119Z,13.79
2023-05-04T00:28:36.746Z,13.82
2023-05-04T00:29:38.404Z,13.86
2023-05-04T00:30:39.905Z,13.88
2023-05-04T00:31:41.524Z,13.91
2023-05-04T00:32:43.202Z,13.91
2023-05-04T00:33:45.754Z,13.88
2023-05-04T00:34:48.541Z,13.85
2023-05-04T00:35:50.759Z,13.80
2023-05-04T00:36:52.532Z,13.79
2023-05-04T00:37:54.035Z,13.76
2023-05-04T00:38:56.042Z,13.73
2023-05-04T00:39:58.181Z,13.65
2023-05-04T00:40:59.791Z,13.56
2023-05-04T00:42:01.814Z,13.58
2023-05-04T00:43:03.394Z,13.62
2023-05-04T00:44:05.964Z,13.67
2023-05-04T00:45:08.006Z,13.72
2023-05-04T00:46:11.139Z,13.66
2023-05-04T00:47:13.742Z,13.70
2023-05-04T00:48:15.802Z,13.66
2023-05-04T00:49:17.680Z,13.68
2023-05-04T00:50:19.831Z,13.72
2023-05-04T00:51:23.510Z,13.75
2023-05-04T00:52:25.212Z,13.77
2023-05-04T00:53:27.036Z,13.81
2023-05-04T00:54:29.210Z,13.84
2023-05-04T00:55:31.676Z,13.88
2023-05-04T00:56:33.757Z,13.89
2023-05-04T00:57:35.315Z,13.90
2023-05-04T00:58:37.310Z,13.93
2023-05-04T00:59:39.459Z,13.94
2023-05-04T01:00:41.522Z,13.95
2023-05-04T01:01:43.737Z,13.96
2023-05-04T01:02:45.382Z,13.99
2023-05-04T01:03:47.712Z,14.01
2023-05-04T01:04:49.506Z,14.05
2023-05-04T01:06:12.958Z,14.09
2023-05-04T01:07:26.729Z,14.09
2023-05-04T01:08:32.586Z,14.08
2023-05-04T01:09:49.965Z,14.09
2023-05-04T01:11:03.882Z,14.09
2023-05-04T01:12:05.653Z,14.12
2023-05-04T01:13:12.035Z,14.13
2023-05-04T01:14:14.929Z,14.17
2023-05-04T01:15:16.675Z,14.20
2023-05-04T01:16:18.428Z,14.24
2023-05-04T01:17:20.309Z,14.28
2023-05-04T01:18:23.353Z,14.29
2023-05-04T01:19:27.600Z,14.26
2023-05-04T01:20:29.236Z,14.21
2023-05-04T01:21:31.230Z,14.17
2023-05-04T01:22:32.924Z,14.04
2023-05-04T01:23:34.539Z,13.96
2023-05-04T01:24:36.282Z,13.90
2023-05-04T01:26:07.047Z,13.86
2023-05-04T01:27:19.241Z,13.82
2023-05-04T01:28:32.280Z,13.64
2023-05-04T01:29:48.478Z,13.52
2023-05-04T01:30:54.368Z,13.45
2023-05-04T01:31:57.075Z,13.46
2023-05-04T01:33:00.622Z,13.43
2023-05-04T01:34:03.112Z,13.46
2023-05-04T01:35:05.068Z,13.41
2023-05-04T01:36:08.035Z,13.30
2023-05-04T01:37:10.074Z,13.24
2023-05-04T01:38:11.861Z,13.20
2023-05-04T01:39:13.498Z,13.21
2023-05-04T01:40:15.765Z,13.26
2023-05-04T01:41:17.345Z,13.30
2023-05-04T01:42:19.013Z,13.32
2023-05-04T01:43:20.581Z,13.32
2023-05-04T01:44:22.149Z,13.26
2023-05-04T01:45:23.910Z,13.23
2023-05-04T01:46:25.532Z,13.20
2023-05-04T01:47:27.113Z,13.21
2023-05-04T01:48:28.709Z,13.20
2023-05-04T01:49:30.377Z,13.22
2023-05-04T01:50:32.091Z,13.22
2023-05-04T01:51:33.682Z,13.20
2023-05-04T01:52:35.249Z,13.17
2023-05-04T01:53:36.775Z,13.09
2023-05-04T01:54:38.414Z,13.02
2023-05-04T01:55:39.980Z,13.01
2023-05-04T01:56:42.148Z,12.99
2023-05-04T01:57:43.687Z,12.97
2023-05-04T01:58:45.227Z,13.02
2023-05-04T01:59:46.762Z,13.10
2023-05-04T02:00:48.340Z,13.20
2023-05-04T02:01:49.909Z,13.28
2023-05-04T02:02:51.573Z,13.34
2023-05-04T02:03:53.319Z,13.38
2023-05-04T02:04:54.966Z,13.43
2023-05-04T02:05:56.628Z,13.46
2023-05-04T02:06:58.220Z,13.49
2023-05-04T02:07:59.766Z,13.55
2023-05-04T02:09:01.329Z,13.62
2023-05-04T02:10:03.898Z,13.66
2023-05-04T02:11:05.697Z,13.73
2023-05-04T02:12:07.479Z,13.78
2023-05-04T02:13:09.111Z,13.82
2023-05-04T02:14:10.702Z,13.85
2023-05-04T02:15:12.316Z,13.88
2023-05-04T02:16:13.951Z,13.92
2023-05-04T02:17:15.554Z,13.95
2023-05-04T02:18:17.297Z,13.99
2023-05-04T02:19:18.840Z,14.00
2023-05-04T02:20:20.407Z,14.01
2023-05-04T02:21:21.939Z,14.03
2023-05-04T02:22:23.501Z,14.03
2023-05-04T02:23:25.368Z,14.05
2023-05-04T02:24:26.993Z,14.06
2023-05-04T02:25:28.626Z,14.06
2023-05-04T02:26:30.219Z,14.08
2023-05-04T02:27:31.764Z,14.08
2023-05-04T02:28:33.359Z,14.00
2023-05-04T02:29:34.893Z,13.98
2023-05-04T02:30:36.454Z,13.93
2023-05-04T02:31:38.114Z,13.94
2023-05-04T02:32:39.733Z,13.93
2023-05-04T02:33:41.301Z,13.72
2023-05-04T02:34:42.865Z,13.47
2023-05-04T02:35:44.425Z,13.29
2023-05-04T02:36:47.074Z,13.11
2023-05-04T02:37:48.827Z,12.86
2023-05-04T02:38:51.338Z,12.65
2023-05-04T02:39:52.911Z,12.70
2023-05-04T02:40:54.451Z,12.73
2023-05-04T02:41:55.984Z,12.78
2023-05-04T02:42:57.657Z,12.79
2023-05-04T02:43:59.220Z,12.83
2023-05-04T02:45:01.110Z,12.90
2023-05-04T02:46:02.959Z,12.98
2023-05-04T02:47:05.973Z,13.06
2023-05-04T02:48:07.579Z,13.17
2023-05-04T02:49:09.346Z,13.26
2023-05-04T02:50:11.062Z,13.32
2023-05-04T02:51:12.600Z,13.38
2023-05-04T02:52:14.476Z,13.42
2023-05-04T02:53:16.173Z,13.45
2023-05-04T02:54:17.785Z,13.48
2023-05-04T02:55:19.428Z,13.49
2023-05-04T02:56:21.367Z,13.51
2023-05-04T02:57:22.946Z,13.52
2023-05-04T02:58:24.516Z,13.56
2023-05-04T02:59:26.140Z,13.60
2023-05-04T03:00:27.725Z,13.65
2023-05-04T03:01:29.354Z,13.66
2023-05-04T03:02:31.040Z,13.71
2023-05-04T03:03:32.657Z,13.75
2023-05-04T03:04:34.306Z,13.77
2023-05-04T03:05:35.918Z,13.80
2023-05-04T03:06:37.752Z,13.82
2023-05-04T03:07:39.442Z,13.88
2023-05-04T03:08:41.211Z,13.98
2023-05-04T03:09:44.168Z,14.02
2023-05-04T03:10:46.896Z,13.99
2023-05-04T03:11:48.434Z,14.01
2023-05-04T03:12:50.471Z,13.98
2023-05-04T03:13:52.621Z,13.98
2023-05-04T03:14:54.179Z,13.93
2023-05-04T03:15:55.694Z,13.86
2023-05-04T03:16:58.068Z,13.89
2023-05-04T03:17:59.865Z,13.87
2023-05-04T03:19:01.570Z,13.89
2023-05-04T03:20:03.591Z,13.89
2023-05-04T03:21:05.506Z,13.88
2023-05-04T03:22:07.209Z,13.83
2023-05-04T03:23:08.922Z,13.80
2023-05-04T03:24:11.400Z,13.78
2023-05-04T03:25:12.936Z,13.75
2023-05-04T03:26:14.437Z,13.76
2023-05-04T03:27:16.014Z,13.76
2023-05-04T03:28:17.770Z,13.77
2023-05-04T03:29:19.325Z,13.74
2023-05-04T03:30:21.028Z,13.70
2023-05-04T03:31:22.659Z,13.73
2023-05-04T03:32:24.894Z,13.74
2023-05-04T03:33:26.646Z,13.76
2023-05-04T03:34:28.240Z,13.77
2023-05-04T03:35:29.832Z,13.78
2023-05-04T03:36:31.500Z,13.79
2023-05-04T03:37:33.054Z,13.82
2023-05-04T03:38:34.738Z,13.83
2023-05-04T03:39:36.368Z,13.88
2023-05-04T03:40:38.020Z,13.88
2023-05-04T03:41:39.554Z,13.89
2023-05-04T03:42:41.149Z,13.84
2023-05-04T03:43:42.738Z,13.82
2023-05-04T03:44:44.314Z,13.81
2023-05-04T03:45:46.404Z,13.70
2023-05-04T03:46:47.998Z,13.49
2023-05-04T03:47:49.620Z,13.45
2023-05-04T03:48:51.235Z,13.44
2023-05-04T03:49:52.798Z,13.49
2023-05-04T03:50:54.518Z,13.53
2023-05-04T03:51:56.035Z,13.60
2023-05-04T03:52:57.617Z,13.67
2023-05-04T03:53:59.229Z,13.73
2023-05-04T03:55:00.837Z,13.77
2023-05-04T03:56:03.410Z,13.84
2023-05-04T03:57:05.024Z,13.87
2023-05-04T03:58:07.016Z,13.92
2023-05-04T03:59:08.557Z,13.96
2023-05-04T04:00:10.946Z,13.95
2023-05-04T04:01:12.509Z,13.89
2023-05-04T04:02:14.080Z,13.83
2023-05-04T04:03:15.872Z,13.78
2023-05-04T04:04:17.597Z,13.69
2023-05-04T04:05:19.361Z,13.62
2023-05-04T04:06:22.797Z,13.55
2023-05-04T04:07:24.493Z,13.47
2023-05-04T04:08:26.274Z,13.44
2023-05-04T04:09:28.932Z,13.39
2023-05-04T04:10:31.004Z,13.40
2023-05-04T04:11:32.603Z,13.39
2023-05-04T04:12:34.383Z,13.30
2023-05-04T04:13:36.040Z,13.16
2023-05-04T04:14:37.574Z,13.13
2023-05-04T04:15:40.614Z,13.18
2023-05-04T04:16:43.252Z,13.23
2023-05-04T04:17:44.837Z,13.31
2023-05-04T04:18:46.562Z,13.41
2023-05-04T04:19:48.208Z,13.48
2023-05-04T04:20:50.352Z,13.52
2023-05-04T04:21:51.932Z,13.57
2023-05-04T04:22:53.756Z,13.60
2023-05-04T04:23:55.406Z,13.54
2023-05-04T04:24:56.994Z,13.49
2023-05-04T04:25:58.539Z,13.46
2023-05-04T04:27:00.163Z,13.46
2023-05-04T04:28:01.801Z,13.51
2023-05-04T04:29:03.966Z,13.51
2023-05-04T04:30:06.232Z,13.49
2023-05-04T04:31:08.107Z,13.42
2023-05-04T04:32:09.803Z,13.40
2023-05-04T04:33:12.033Z,13.41
2023-05-04T04:34:16.464Z,13.43
2023-05-04T04:35:18.427Z,13.45
2023-05-04T04:36:20.006Z,13.47
2023-05-04T04:37:21.961Z,13.50
2023-05-04T04:38:23.614Z,13.54
2023-05-04T04:39:25.913Z,13.58
2023-05-04T04:40:28.584Z,13.60
2023-05-04T04:41:31.189Z,13.63
2023-05-04T04:42:34.451Z,13.67
2023-05-04T04:43:36.898Z,13.70
2023-05-04T04:44:39.574Z,13.71
2023-05-04T04:45:41.611Z,13.73
2023-05-04T04:46:44.988Z,13.78
2023-05-04T04:47:47.313Z,13.81
2023-05-04T04:48:49.256Z,13.86
2023-05-04T04:49:50.986Z,13.88
2023-05-04T04:50:52.956Z,13.94
2023-05-04T04:51:54.567Z,13.94
2023-05-04T04:52:56.354Z,13.92
2023-05-04T04:53:57.930Z,13.92
2023-05-04T04:54:59.978Z,13.94
2023-05-04T04:56:01.896Z,13.93
2023-05-04T04:57:04.160Z,13.92
2023-05-04T04:58:06.769Z,13.95
2023-05-04T04:59:08.339Z,13.97
2023-05-04T05:00:10.552Z,14.00
2023-05-04T05:01:18.095Z,14.02
2023-05-04T05:02:20.187Z,14.04
2023-05-04T05:03:21.948Z,14.05
2023-05-04T05:04:23.976Z,14.10
2023-05-04T05:05:25.639Z,14.09
2023-05-04T05:06:27.201Z,14.07
2023-05-04T05:07:28.766Z,14.05
2023-05-04T05:08:32.770Z,14.02
2023-05-04T05:09:35.352Z,13.95
2023-05-04T05:10:36.876Z,13.90
2023-05-04T05:11:38.628Z,13.78
2023-05-04T05:12:40.563Z,13.62
2023-05-04T05:13:42.197Z,13.49
2023-05-04T05:14:44.501Z,13.48
2023-05-04T05:15:46.060Z,13.43
2023-05-04T05:16:47.602Z,13.40
2023-05-04T05:17:49.221Z,13.49
2023-05-04T05:18:50.944Z,13.44
2023-05-04T05:19:52.626Z,13.38
2023-05-04T05:20:54.191Z,13.32
2023-05-04T05:21:57.078Z,13.34
2023-05-04T05:22:58.846Z,13.39
2023-05-04T05:24:01.743Z,13.36
2023-05-04T05:25:04.425Z,13.26
2023-05-04T05:26:06.388Z,13.22
2023-05-04T05:27:08.376Z,13.30
2023-05-04T05:28:10.364Z,13.36
2023-05-04T05:29:11.952Z,13.40
2023-05-04T05:30:13.911Z,13.43
2023-05-04T05:31:15.633Z,13.48
2023-05-04T05:32:17.242Z,13.47
2023-05-04T05:33:19.066Z,13.40
2023-05-04T05:34:20.683Z,13.42
2023-05-04T05:35:22.277Z,13.46
2023-05-04T05:36:23.778Z,13.57
2023-05-04T05:37:25.413Z,13.65
2023-05-04T05:38:26.982Z,13.70
2023-05-04T05:39:28.918Z,13.75
2023-05-04T05:40:30.559Z,13.80
2023-05-04T05:41:32.157Z,13.82
2023-05-04T05:42:33.945Z,13.85
2023-05-04T05:43:37.160Z,13.88
2023-05-04T05:44:38.853Z,13.92
2023-05-04T05:45:40.393Z,13.92
2023-05-04T05:46:42.056Z,13.94
2023-05-04T05:47:43.735Z,13.90
2023-05-04T05:48:45.362Z,13.87
2023-05-04T05:49:46.956Z,13.84
2023-05-04T05:50:48.486Z,13.90
2023-05-04T05:51:50.111Z,13.87
2023-05-04T05:52:51.742Z,13.76
2023-05-04T05:53:53.315Z,13.71
2023-05-04T05:54:55.106Z,13.63
2023-05-04T05:55:56.655Z,13.51
2023-05-04T05:56:58.915Z,13.48
2023-05-04T05:58:00.495Z,13.51
2023-05-04T05:59:02.253Z,13.59
2023-05-04T06:00:05.469Z,13.68
2023-05-04T06:01:07.185Z,13.69
2023-05-04T06:02:08.860Z,13.71
2023-05-04T06:03:10.556Z,13.73
2023-05-04T06:04:12.323Z,13.79
2023-05-04T06:05:13.988Z,13.86
2023-05-04T06:06:15.683Z,13.92
2023-05-04T06:07:17.788Z,13.88
2023-05-04T06:08:19.434Z,13.70
2023-05-04T06:09:21.200Z,13.62
2023-05-04T06:10:22.756Z,13.69
2023-05-04T06:11:24.308Z,13.74
2023-05-04T06:12:25.858Z,13.78
2023-05-04T06:13:27.402Z,13.81
2023-05-04T06:14:28.958Z,13.86
2023-05-04T06:15:30.790Z,13.94
2023-05-04T06:16:32.419Z,13.99
2023-05-04T06:17:34.038Z,14.06
2023-05-04T06:18:35.948Z,14.07
2023-05-04T06:19:38.358Z,14.14
2023-05-04T06:20:39.927Z,14.17
2023-05-04T06:21:41.466Z,14.18
2023-05-04T06:22:42.969Z,14.19
2023-05-04T06:23:44.764Z,14.22
2023-05-04T06:24:46.702Z,14.21
2023-05-04T06:25:48.362Z,14.19
2023-05-04T06:26:50.327Z,14.14
2023-05-04T06:27:52.029Z,14.06
2023-05-04T06:28:53.625Z,14.08
2023-05-04T06:29:55.231Z,14.06
2023-05-04T06:30:56.774Z,14.06
2023-05-04T06:31:59.035Z,13.97
2023-05-04T06:33:00.759Z,13.97
2023-05-04T06:34:02.420Z,14.04
2023-05-04T06:35:04.360Z,14.04
2023-05-04T06:36:06.447Z,14.00
2023-05-04T06:37:07.977Z,14.02
2023-05-04T06:38:09.555Z,14.12
2023-05-04T06:39:11.412Z,14.02
2023-05-04T06:40:13.851Z,13.98
2023-05-04T06:41:15.625Z,13.98
2023-05-04T06:42:17.244Z,14.12
2023-05-04T06:43:18.825Z,14.17
2023-05-04T06:44:20.357Z,14.16
2023-05-04T06:45:21.948Z,14.20
2023-05-04T06:46:23.498Z,14.20
2023-05-04T06:47:25.191Z,14.04
2023-05-04T06:48:27.373Z,13.91
2023-05-04T06:49:31.884Z,13.96
2023-05-04T06:50:33.578Z,13.97
2023-05-04T06:51:37.568Z,13.96
2023-05-04T06:52:40.968Z,13.93
2023-05-04T06:53:42.538Z,13.91
2023-05-04T06:54:44.182Z,13.93
2023-05-04T06:55:45.749Z,13.90
2023-05-04T06:56:47.715Z,13.88
2023-05-04T06:57:51.092Z,13.92
2023-05-04T06:58:52.902Z,13.97
2023-05-04T06:59:54.444Z,13.97
2023-05-04T07:00:55.980Z,13.99
2023-05-04T07:01:57.904Z,14.01
2023-05-04T07:02:59.572Z,14.07
2023-05-04T07:04:01.406Z,14.04
2023-05-04T07:05:03.764Z,14.05
2023-05-04T07:06:05.372Z,14.02
2023-05-04T07:07:06.951Z,13.95
2023-05-04T07:08:09.758Z,13.94
2023-05-04T07:09:11.430Z,13.90
2023-05-04T07:10:15.318Z,14.08
2023-05-04T07:11:16.883Z,14.29
2023-05-04T07:12:18.722Z,14.29
2023-05-04T07:13:20.418Z,14.25
2023-05-04T07:14:21.966Z,14.26
2023-05-04T07:15:23.497Z,14.30
2023-05-04T07:16:26.345Z,14.38
2023-05-04T07:17:28.213Z,14.39
2023-05-04T07:18:29.737Z,14.43
2023-05-04T07:19:31.340Z,14.45
2023-05-04T07:20:33.068Z,14.44
2023-05-04T07:21:35.014Z,14.45
2023-05-04T07:22:36.616Z,14.36
2023-05-04T07:23:38.331Z,14.36
2023-05-04T07:24:39.866Z,14.46
2023-05-04T07:25:41.494Z,14.48
2023-05-04T07:26:43.081Z,14.62
2023-05-04T07:27:45.150Z,14.72
2023-05-04T07:28:46.803Z,14.67
2023-05-04T07:29:48.448Z,14.66
2023-05-04T07:30:50.265Z,14.70
2023-05-04T07:31:52.015Z,14.67
2023-05-04T07:32:53.707Z,14.63
2023-05-04T07:33:55.331Z,14.66
2023-05-04T07:34:56.886Z,14.71
2023-05-04T07:35:59.267Z,14.72
2023-05-04T07:37:00.789Z,14.75
2023-05-04T07:38:03.142Z,14.77
2023-05-04T07:39:04.712Z,14.74
2023-05-04T07:40:07.676Z,14.71
2023-05-04T07:41:10.366Z,14.77
2023-05-04T07:42:11.951Z,14.82
2023-05-04T07:43:13.482Z,14.85
2023-05-04T07:44:15.047Z,14.92
2023-05-04T07:45:17.566Z,14.97
2023-05-04T07:46:19.275Z,15.00
2023-05-04T07:47:20.999Z,14.99
2023-05-04T07:48:24.641Z,15.15
2023-05-04T07:49:27.946Z,15.23
2023-05-04T07:50:29.994Z,15.31
2023-05-04T07:51:31.682Z,15.42
2023-05-04T07:52:33.310Z,15.44
2023-05-04T07:53:34.970Z,15.50
2023-05-04T07:54:36.546Z,15.49
2023-05-04T07:55:38.173Z,15.48
2023-05-04T07:56:39.694Z,15.53
2023-05-04T07:57:41.357Z,15.41
2023-05-04T07:58:42.947Z,15.19
2023-05-04T07:59:44.493Z,15.01
2023-05-04T08:00:46.301Z,14.88
2023-05-04T08:01:48.023Z,14.69
2023-05-04T08:02:49.814Z,14.58
2023-05-04T08:03:51.431Z,14.61
2023-05-04T08:04:53.016Z,14.67
2023-05-04T08:05:54.595Z,14.73
2023-05-04T08:06:56.141Z,14.84
2023-05-04T08:07:57.735Z,14.90
2023-05-04T08:08:59.247Z,14.99
2023-05-04T08:10:00.924Z,15.06
2023-05-04T08:11:15.909Z,15.15
2023-05-04T08:12:20.609Z,15.20
2023-05-04T08:13:22.240Z,15.28
2023-05-04T08:14:23.871Z,15.32
2023-05-04T08:15:25.683Z,15.38
2023-05-04T08:16:29.214Z,15.53
2023-05-04T08:17:30.914Z,15.56
2023-05-04T08:18:32.530Z,15.65
2023-05-04T08:19:34.231Z,15.75
2023-05-04T08:20:35.791Z,15.80
2023-05-04T08:21:37.410Z,15.93
2023-05-04T08:22:39.264Z,16.04
2023-05-04T08:23:40.819Z,16.13
2023-05-04T08:24:42.514Z,16.10
2023-05-04T08:25:44.108Z,16.25
2023-05-04T08:26:52.676Z,16.22
2023-05-04T08:28:06.552Z,16.17
2023-05-04T08:29:10.592Z,16.20
2023-05-04T08:30:12.796Z,16.25
2023-05-04T08:31:14.426Z,16.28
2023-05-04T08:32:16.055Z,16.05
2023-05-04T08:33:17.638Z,16.05
2023-05-04T08:34:19.184Z,16.06
2023-05-04T08:35:21.293Z,15.98
2023-05-04T08:36:22.871Z,15.97
2023-05-04T08:37:24.460Z,16.04
2023-05-04T08:38:26.240Z,16.03
2023-05-04T08:39:27.813Z,16.01
2023-05-04T08:40:29.553Z,16.10
2023-05-04T08:41:31.375Z,16.22
2023-05-04T08:42:34.492Z,16.30
2023-05-04T08:43:36.861Z,16.38
2023-05-04T08:44:38.529Z,16.44
2023-05-04T08:45:40.288Z,16.52
2023-05-04T08:46:42.598Z,16.59
2023-05-04T08:47:45.104Z,16.59
2023-05-04T08:48:47.306Z,16.57
2023-05-04T08:49:49.682Z,16.51
2023-05-04T08:50:51.430Z,16.50
2023-05-04T08:51:53.061Z,16.56
2023-05-04T08:52:55.985Z,16.61
2023-05-04T08:53:58.798Z,16.66
2023-05-04T08:55:01.216Z,16.65
2023-05-04T08:56:07.763Z,16.54
2023-05-04T08:57:09.443Z,16.61
2023-05-04T08:58:12.943Z,16.73
2023-05-04T08:59:20.312Z,16.77
2023-05-04T09:00:23.224Z,16.81
2023-05-04T09:01:25.292Z,16.75
2023-05-04T09:02:28.126Z,16.62
2023-05-04T09:03:30.683Z,16.66
2023-05-04T09:04:32.402Z,16.80
2023-05-04T09:05:34.675Z,16.91
2023-05-04T09:06:36.384Z,17.00
2023-05-04T09:07:38.143Z,17.18
2023-05-04T09:08:40.142Z,17.39
2023-05-04T09:09:42.059Z,17.54
2023-05-04T09:10:43.635Z,17.69
2023-05-04T09:11:45.269Z,17.81
2023-05-04T09:12:47.298Z,17.84
2023-05-04T09:13:48.850Z,17.75
2023-05-04T09:14:50.473Z,17.51
2023-05-04T09:15:55.943Z,17.35
2023-05-04T09:16:57.707Z,17.23
2023-05-04T09:18:03.094Z,17.22
2023-05-04T09:19:16.303Z,17.44
2023-05-04T09:20:17.897Z,17.75
2023-05-04T09:21:29.357Z,18.06
2023-05-04T09:22:31.563Z,18.32
2023-05-04T09:23:33.735Z,18.46
2023-05-04T09:24:35.302Z,18.50
2023-05-04T09:25:54.137Z,18.65
2023-05-04T09:26:56.035Z,18.69
2023-05-04T09:27:57.569Z,18.76
2023-05-04T09:29:15.270Z,18.72
2023-05-04T09:30:21.493Z,18.66
2023-05-04T09:31:23.787Z,18.71
2023-05-04T09:32:25.553Z,18.70
2023-05-04T09:33:27.563Z,18.69
2023-05-04T09:34:29.620Z,18.66
2023-05-04T09:35:34.042Z,18.66
2023-05-04T09:36:36.019Z,18.53
2023-05-04T09:37:46.061Z,18.38
2023-05-04T09:38:47.862Z,18.37
2023-05-04T09:39:51.751Z,18.45
2023-05-04T09:40:53.293Z,18.53
2023-05-04T09:41:55.395Z,18.62
2023-05-04T09:42:57.884Z,18.58
2023-05-04T09:43:59.450Z,18.65
2023-05-04T09:45:08.132Z,18.64
2023-05-04T09:46:19.437Z,18.64
2023-05-04T09:47:21.417Z,18.72
2023-05-04T09:48:29.393Z,18.71
2023-05-04T09:49:35.269Z,18.70
2023-05-04T09:50:40.076Z,18.64
2023-05-04T09:51:42.182Z,18.67
2023-05-04T09:52:45.411Z,18.72
2023-05-04T09:53:49.254Z,18.76
2023-05-04T09:54:50.958Z,18.82
2023-05-04T09:56:17.907Z,18.79
2023-05-04T09:57:22.875Z,18.73
2023-05-04T09:58:29.523Z,18.74
2023-05-04T09:59:34.585Z,18.72
2023-05-04T10:00:36.454Z,18.83
2023-05-04T10:01:38.236Z,18.86
2023-05-04T10:02:40.741Z,18.97
2023-05-04T10:03:44.037Z,19.14
2023-05-04T10:04:45.804Z,19.24
2023-05-04T10:05:49.131Z,19.39
2023-05-04T10:06:50.828Z,19.51
2023-05-04T10:07:52.705Z,19.69
2023-05-04T10:08:54.301Z,19.77
2023-05-04T10:09:58.854Z,19.87
2023-05-04T10:11:00.581Z,19.86
2023-05-04T10:12:05.810Z,19.84
2023-05-04T10:13:07.427Z,19.41
2023-05-04T10:14:09.444Z,19.35
2023-05-04T10:15:12.426Z,19.40
2023-05-04T10:16:40.318Z,19.34
2023-05-04T10:18:20.116Z,19.13
2023-05-04T10:19:57.909Z,19.29
2023-05-04T10:21:15.520Z,19.36
2023-05-04T10:22:51.245Z,18.97
2023-05-04T10:24:04.936Z,18.71
2023-05-04T10:25:35.287Z,18.89
2023-05-04T10:26:50.235Z,18.98
2023-05-04T10:28:02.315Z,18.82
2023-05-04T10:29:23.100Z,18.60
2023-05-04T10:30:25.367Z,18.59
2023-05-04T10:31:40.371Z,18.33
2023-05-04T10:32:42.300Z,18.12
2023-05-04T10:33:44.123Z,18.15
2023-05-04T10:34:45.858Z,18.26
2023-05-04T10:35:54.325Z,18.43
2023-05-04T10:36:56.423Z,18.50
2023-05-04T10:37:59.075Z,18.67
2023-05-04T10:39:01.433Z,18.72
2023-05-04T10:40:08.918Z,18.87
2023-05-04T10:41:18.842Z,19.08
2023-05-04T10:42:21.008Z,19.24
2023-05-04T10:43:28.973Z,19.12
2023-05-04T10:44:32.645Z,19.12
2023-05-04T10:45:44.089Z,19.12
2023-05-04T10:46:59.807Z,19.03
2023-05-04T10:48:02.414Z,19.14
2023-05-04T10:49:16.186Z,19.18
2023-05-04T10:50:17.809Z,19.39
2023-05-04T10:51:26.529Z,19.46
2023-05-04T10:52:54.099Z,19.64
2023-05-04T10:53:55.779Z,19.70
2023-05-04T10:55:02.228Z,19.72
2023-05-04T10:56:04.339Z,19.43
2023-05-04T10:57:11.293Z,19.44
2023-05-04T10:58:16.571Z,19.60
2023-05-04T10:59:19.195Z,19.75
2023-05-04T11:00:21.506Z,19.83
2023-05-04T11:01:23.212Z,19.94
2023-05-04T11:02:26.573Z,20.02
2023-05-04T11:03:39.485Z,20.14
2023-05-04T11:04:41.247Z,20.18
2023-05-04T11:05:47.987Z,20.13
2023-05-04T11:07:00.607Z,19.98
2023-05-04T11:08:26.418Z,19.60
2023-05-04T11:09:34.671Z,19.34
2023-05-04T11:10:36.373Z,18.96
2023-05-04T11:11:38.581Z,18.84
2023-05-04T11:12:40.247Z,18.79
2023-05-04T11:13:46.608Z,18.76
2023-05-04T11:14:48.260Z,18.85
2023-05-04T11:15:51.980Z,19.05
2023-05-04T11:17:12.699Z,19.21
2023-05-04T11:18:28.686Z,19.35
2023-05-04T11:19:30.238Z,19.44
2023-05-04T11:20:31.916Z,19.52
2023-05-04T11:21:33.613Z,19.24
2023-05-04T11:22:37.099Z,18.86
2023-05-04T11:23:39.301Z,18.55
2023-05-04T11:24:46.195Z,18.55
2023-05-04T11:25:47.743Z,18.77
2023-05-04T11:26:49.699Z,18.84
2023-05-04T11:27:51.849Z,18.57
2023-05-04T11:28:53.620Z,18.53
2023-05-04T11:29:59.669Z,18.60
2023-05-04T11:31:01.315Z,18.74
2023-05-04T11:32:04.532Z,18.83
2023-05-04T11:33:14.026Z,18.78
2023-05-04T11:34:19.953Z,18.89
2023-05-04T11:35:25.150Z,18.99
2023-05-04T11:36:27.284Z,18.87
2023-05-04T11:37:29.462Z,18.57
2023-05-04T11:38:31.275Z,18.53
2023-05-04T11:39:33.658Z,18.41
2023-05-04T11:40:36.427Z,18.21
2023-05-04T11:41:38.392Z,18.11
2023-05-04T11:42:41.130Z,18.02
2023-05-04T11:43:45.123Z,18.08
2023-05-04T11:44:46.992Z,18.18
2023-05-04T11:45:48.967Z,18.36
2023-05-04T11:46:51.767Z,18.52
2023-05-04T11:47:56.575Z,18.66
2023-05-04T11:48:59.639Z,18.82
2023-05-04T11:50:01.378Z,18.87
2023-05-04T11:51:04.505Z,18.89
2023-05-04T11:52:10.139Z,19.02
2023-05-04T11:53:13.844Z,19.06
2023-05-04T11:54:24.736Z,19.15
2023-05-04T11:55:28.635Z,19.24
2023-05-04T11:56:40.893Z,19.35
2023-05-04T11:57:42.456Z,19.35
2023-05-04T11:58:44.173Z,19.51
2023-05-04T11:59:49.516Z,19.59
2023-05-04T12:00:56.166Z,19.56
2023-05-04T12:01:57.775Z,19.52
2023-05-04T12:03:00.801Z,19.49
2023-05-04T12:04:02.870Z,19.45
2023-05-04T12:05:12.365Z,19.47
2023-05-04T12:06:14.013Z,19.54
2023-05-04T12:07:16.009Z,19.52
2023-05-04T12:08:41.820Z,19.43
2023-05-04T12:09:50.122Z,19.36
2023-05-04T12:11:16.016Z,19.32
2023-05-04T12:12:20.429Z,19.25
2023-05-04T12:13:22.231Z,19.37
2023-05-04T12:14:24.722Z,19.39
2023-05-04T12:15:31.581Z,19.34
2023-05-04T12:16:33.731Z,19.32
2023-05-04T12:17:44.254Z,19.38
2023-05-04T12:18:47.405Z,19.53
2023-05-04T12:19:56.483Z,19.55
2023-05-04T12:21:27.511Z,19.53
2023-05-04T12:22:30.331Z,19.65
2023-05-04T12:23:31.912Z,19.61
2023-05-04T12:24:33.660Z,19.60
2023-05-04T12:25:41.334Z,19.64
2023-05-04T12:26:49.553Z,19.75
2023-05-04T12:27:51.552Z,19.79
2023-05-04T12:28:53.599Z,19.82
2023-05-04T12:29:55.209Z,19.77
2023-05-04T12:30:57.354Z,19.81
2023-05-04T12:31:58.979Z,19.89
2023-05-04T12:33:00.619Z,20.01
2023-05-04T12:34:05.786Z,19.99
2023-05-04T12:35:08.038Z,19.96
2023-05-04T12:36:10.296Z,19.94
2023-05-04T12:37:11.875Z,19.92
2023-05-04T12:38:13.638Z,19.96
2023-05-04T12:39:15.219Z,20.11
2023-05-04T12:40:27.706Z,20.12
2023-05-04T12:41:31.535Z,20.15
2023-05-04T12:42:33.399Z,20.24
2023-05-04T12:43:34.949Z,20.28
2023-05-04T12:44:36.637Z,20.33
2023-05-04T12:45:38.215Z,20.30
2023-05-04T12:46:40.145Z,20.30
2023-05-04T12:47:41.700Z,20.21
2023-05-04T12:48:43.299Z,20.21
2023-05-04T12:49:44.843Z,20.09
2023-05-04T12:50:48.822Z,19.91
2023-05-04T12:51:51.790Z,19.94
2023-05-04T12:52:53.351Z,19.93
2023-05-04T12:53:55.745Z,19.94
2023-05-04T12:54:57.270Z,19.90
2023-05-04T12:56:00.567Z,19.82
2023-05-04T12:57:02.482Z,19.78
2023-05-04T12:58:04.247Z,19.75
2023-05-04T12:59:06.115Z,19.69
2023-05-04T13:00:10.007Z,19.71
2023-05-04T13:01:11.573Z,19.70
2023-05-04T13:02:13.152Z,19.60
2023-05-04T13:03:17.138Z,19.66
2023-05-04T13:04:19.055Z,19.72
2023-05-04T13:05:22.821Z,19.75
2023-05-04T13:06:24.505Z,19.72
2023-05-04T13:07:26.094Z,19.62
2023-05-04T13:08:27.757Z,19.59
2023-05-04T13:09:29.436Z,19.55
2023-05-04T13:10:31.409Z,19.56
2023-05-04T13:11:33.067Z,19.51
2023-05-04T13:12:34.720Z,19.48
2023-05-04T13:13:36.282Z,19.51
2023-05-04T13:14:40.062Z,19.50
2023-05-04T13:15:42.563Z,19.55
2023-05-04T13:16:44.178Z,19.67
2023-05-04T13:17:45.753Z,19.84
2023-05-04T13:18:47.398Z,19.86
2023-05-04T13:19:49.074Z,19.81
2023-05-04T13:20:53.743Z,19.61
2023-05-04T13:21:55.908Z,19.41
2023-05-04T13:22:58.536Z,19.31
2023-05-04T13:24:00.473Z,19.33
2023-05-04T13:25:02.207Z,19.38
2023-05-04T13:26:03.956Z,19.49
2023-05-04T13:27:05.667Z,19.53
2023-05-04T13:28:07.226Z,19.55
2023-05-04T13:29:08.797Z,19.53
2023-05-04T13:30:10.969Z,19.46
2023-05-04T13:31:12.792Z,19.49
2023-05-04T13:32:14.348Z,19.45
2023-05-04T13:33:28.176Z,19.47
2023-05-04T13:34:30.160Z,19.43